createdAt,value
2023-05-23T00:00:07.938Z,3.23
2023-05-23T00:02:38.332Z,4.00
2023-05-23T00:05:07.700Z,3.53
2023-05-23T00:07:43.797Z,3.90
2023-05-23T00:10:12.591Z,4.33
2023-05-23T00:12:43.194Z,4.13
2023-05-23T00:15:12.600Z,3.97
2023-05-23T00:17:41.036Z,3.90
2023-05-23T00:20:10.749Z,4.07
2023-05-23T00:22:44.946Z,3.63
2023-05-23T00:25:13.373Z,4.37
2023-05-23T00:27:41.472Z,4.20
2023-05-23T00:30:10.617Z,3.30
2023-05-23T00:32:39.291Z,3.90
2023-05-23T00:35:07.814Z,4.50
2023-05-23T00:37:35.581Z,7.17
2023-05-23T00:40:03.531Z,4.20
2023-05-23T00:42:33.344Z,4.00
2023-05-23T00:45:01.249Z,3.83
2023-05-23T00:47:32.918Z,5.47
2023-05-23T00:50:01.153Z,4.00
2023-05-23T00:52:29.216Z,3.53
2023-05-23T00:54:58.028Z,4.20
2023-05-23T00:57:26.269Z,4.13
2023-05-23T00:59:55.882Z,4.07
2023-05-23T01:02:25.520Z,4.37
2023-05-23T01:04:54.984Z,4.10
2023-05-23T01:07:23.633Z,4.23
2023-05-23T01:09:52.067Z,3.70
2023-05-23T01:12:28.391Z,3.80
2023-05-23T01:15:05.341Z,4.23
2023-05-23T01:17:42.501Z,4.07
2023-05-23T01:20:19.570Z,4.00
2023-05-23T01:23:02.480Z,4.10
2023-05-23T01:26:04.538Z,4.50
2023-05-23T01:28:39.971Z,3.83
2023-05-23T01:31:08.890Z,4.10
2023-05-23T01:33:38.725Z,4.17
2023-05-23T01:36:06.492Z,4.03
2023-05-23T01:38:34.474Z,4.00
2023-05-23T01:41:02.782Z,3.90
2023-05-23T01:43:31.558Z,4.33
2023-05-23T01:46:00.924Z,3.70
2023-05-23T01:48:32.757Z,4.20
2023-05-23T01:51:00.833Z,4.03
2023-05-23T01:53:29.532Z,4.30
2023-05-23T01:55:57.606Z,3.57
2023-05-23T01:58:25.149Z,4.20
2023-05-23T02:00:53.149Z,4.13
2023-05-23T02:03:21.727Z,4.17
2023-05-23T02:05:49.795Z,4.20
2023-05-23T02:08:19.118Z,4.37
2023-05-23T02:10:47.099Z,4.27
2023-05-23T02:13:15.160Z,4.37
2023-05-23T02:15:43.183Z,4.50
2023-05-23T02:18:11.125Z,4.20
2023-05-23T02:20:41.375Z,4.60
2023-05-23T02:23:10.090Z,4.10
2023-05-23T02:25:38.113Z,4.53
2023-05-23T02:28:06.146Z,4.07
2023-05-23T02:30:34.142Z,5.73
2023-05-23T02:33:06.014Z,4.80
2023-05-23T02:35:34.904Z,4.77
2023-05-23T02:38:03.550Z,4.80
2023-05-23T02:40:31.937Z,5.47
2023-05-23T02:42:59.894Z,4.73
2023-05-23T02:45:27.845Z,4.70
2023-05-23T02:47:55.892Z,4.70
2023-05-23T02:50:24.222Z,4.90
2023-05-23T02:52:52.081Z,4.67
2023-05-23T02:55:20.104Z,5.20
2023-05-23T02:57:52.198Z,5.27
2023-05-23T03:00:23.071Z,5.13
2023-05-23T03:02:51.673Z,5.47
2023-05-23T03:05:20.072Z,6.33
2023-05-23T03:07:48.338Z,6.00
2023-05-23T03:10:16.590Z,6.90
2023-05-23T03:12:44.943Z,7.00
2023-05-23T03:15:13.075Z,5.80
2023-05-23T03:17:41.503Z,6.97
2023-05-23T03:20:10.353Z,6.23
2023-05-23T03:22:38.352Z,8.93
2023-05-23T03:25:07.018Z,7.20
2023-05-23T03:27:34.989Z,7.77
2023-05-23T03:30:04.812Z,7.07
2023-05-23T03:32:33.029Z,6.20
2023-05-23T03:35:00.997Z,6.97
2023-05-23T03:37:29.310Z,8.07
2023-05-23T03:39:57.794Z,8.53
2023-05-23T03:42:25.547Z,7.30
2023-05-23T03:44:53.306Z,6.73
2023-05-23T03:47:25.175Z,6.80
2023-05-23T03:49:53.309Z,7.33
2023-05-23T03:52:24.506Z,8.00
2023-05-23T03:54:52.520Z,6.60
2023-05-23T03:57:20.489Z,6.57
2023-05-23T03:59:48.474Z,6.30
2023-05-23T04:02:18.491Z,6.17
2023-05-23T04:04:47.367Z,6.53
2023-05-23T04:07:16.180Z,5.90
2023-05-23T04:09:44.358Z,5.57
2023-05-23T04:12:12.440Z,6.20
2023-05-23T04:14:41.477Z,5.83
2023-05-23T04:17:09.481Z,5.57
2023-05-23T04:19:37.202Z,5.37
2023-05-23T04:22:06.082Z,5.23
2023-05-23T04:24:34.175Z,5.63
2023-05-23T04:27:02.337Z,5.67
2023-05-23T04:29:32.156Z,5.37
2023-05-23T04:32:00.219Z,6.50
2023-05-23T04:34:29.307Z,6.17
2023-05-23T04:36:57.683Z,6.27
2023-05-23T04:39:26.445Z,7.07
2023-05-23T04:41:54.717Z,7.20
2023-05-23T04:44:23.716Z,6.90
2023-05-23T04:46:51.582Z,6.83
2023-05-23T04:49:23.111Z,6.63
2023-05-23T04:51:51.583Z,7.37
2023-05-23T04:54:20.059Z,7.03
2023-05-23T04:56:48.037Z,7.80
2023-05-23T04:59:18.319Z,7.83
2023-05-23T05:01:46.358Z,7.90
2023-05-23T05:04:34.653Z,8.20
2023-05-23T05:07:05.379Z,7.83
2023-05-23T05:09:33.775Z,8.23
2023-05-23T05:12:01.944Z,7.50
2023-05-23T05:14:30.396Z,8.63
2023-05-23T05:16:58.536Z,8.67
2023-05-23T05:19:26.918Z,8.27
2023-05-23T05:21:55.221Z,7.73
2023-05-23T05:24:23.411Z,7.80
2023-05-23T05:26:51.115Z,8.23
2023-05-23T05:29:19.257Z,7.67
2023-05-23T05:31:47.845Z,7.77
2023-05-23T05:34:18.828Z,7.87
2023-05-23T05:36:48.458Z,9.50
2023-05-23T05:39:18.860Z,8.60
2023-05-23T05:41:48.567Z,8.47
2023-05-23T05:44:21.416Z,8.50
2023-05-23T05:46:54.582Z,7.53
2023-05-23T05:49:27.671Z,6.80
2023-05-23T05:51:58.851Z,7.20
2023-05-23T05:54:26.748Z,7.00
2023-05-23T05:56:55.876Z,7.73
2023-05-23T05:59:27.279Z,6.83
2023-05-23T06:01:55.358Z,6.90
2023-05-23T06:04:23.231Z,10.23
2023-05-23T06:06:51.344Z,7.03
2023-05-23T06:09:19.241Z,6.70
2023-05-23T06:11:47.510Z,6.57
2023-05-23T06:14:15.069Z,6.60
2023-05-23T06:16:46.476Z,6.30
2023-05-23T06:19:14.468Z,6.80
2023-05-23T06:21:42.530Z,6.50
2023-05-23T06:24:10.758Z,7.03
2023-05-23T06:26:39.623Z,6.70
2023-05-23T06:29:11.204Z,7.57
2023-05-23T06:31:39.867Z,7.00
2023-05-23T06:34:07.778Z,6.90
2023-05-23T06:36:36.383Z,7.20
2023-05-23T06:39:05.059Z,6.13
2023-05-23T06:41:33.181Z,6.10
2023-05-23T06:44:01.651Z,5.83
2023-05-23T06:46:29.930Z,5.60
2023-05-23T06:49:13.733Z,5.27
2023-05-23T06:51:42.983Z,5.30
2023-05-23T06:54:12.118Z,5.33
2023-05-23T06:56:40.609Z,4.80
2023-05-23T06:59:09.068Z,5.10
2023-05-23T07:01:37.745Z,4.60
2023-05-23T07:04:05.953Z,3.93
2023-05-23T07:06:36.876Z,4.30
2023-05-23T07:09:05.483Z,4.03
2023-05-23T07:11:33.516Z,4.13
2023-05-23T07:14:01.730Z,4.30
2023-05-23T07:16:30.167Z,4.57
2023-05-23T07:18:57.694Z,4.70
2023-05-23T07:21:25.639Z,4.83
2023-05-23T07:23:53.624Z,4.40
2023-05-23T07:26:21.857Z,4.97
2023-05-23T07:28:49.713Z,4.30
2023-05-23T07:31:18.070Z,4.47
2023-05-23T07:33:46.115Z,4.30
2023-05-23T07:36:14.230Z,3.60
2023-05-23T07:38:42.564Z,3.67
2023-05-23T07:41:12.366Z,4.00
2023-05-23T07:43:41.233Z,3.20
2023-05-23T07:46:11.401Z,4.20
2023-05-23T07:48:39.419Z,3.10
2023-05-23T07:51:07.436Z,3.67
2023-05-23T07:53:40.403Z,3.57
2023-05-23T07:56:08.457Z,3.63
2023-05-23T07:58:37.387Z,3.53
2023-05-23T08:01:05.908Z,3.13
2023-05-23T08:03:33.898Z,3.37
2023-05-23T08:06:02.072Z,3.50
2023-05-23T08:08:30.284Z,2.97
2023-05-23T08:10:58.591Z,2.80
2023-05-23T08:13:27.017Z,3.00
2023-05-23T08:15:57.152Z,2.70
2023-05-23T08:18:25.283Z,2.33
2023-05-23T08:20:54.540Z,2.57
2023-05-23T08:23:22.919Z,2.50
2023-05-23T08:25:51.171Z,3.00
2023-05-23T08:28:19.253Z,2.47
2023-05-23T08:30:48.177Z,2.53
2023-05-23T08:33:16.449Z,2.80
2023-05-23T08:35:45.636Z,2.80
2023-05-23T08:38:13.884Z,3.23
2023-05-23T08:40:44.614Z,3.47
2023-05-23T08:43:12.830Z,3.47
2023-05-23T08:45:45.012Z,3.57
2023-05-23T08:48:14.418Z,4.53
2023-05-23T08:50:44.116Z,3.60
2023-05-23T08:53:20.675Z,4.00
2023-05-23T08:55:49.151Z,3.10
2023-05-23T08:58:17.936Z,3.70
2023-05-23T09:00:46.864Z,3.20
2023-05-23T09:03:14.990Z,3.70
2023-05-23T09:08:28.430Z,3.90
2023-05-23T09:10:56.963Z,3.60
2023-05-23T09:13:26.288Z,3.40
2023-05-23T09:16:02.801Z,3.60
2023-05-23T09:18:35.490Z,3.57
2023-05-23T09:21:06.180Z,3.30
2023-05-23T09:23:37.315Z,3.50
2023-05-23T09:26:08.126Z,3.73
2023-05-23T09:28:38.257Z,4.23
2023-05-23T09:31:07.938Z,3.17
2023-05-23T09:33:41.167Z,3.00
2023-05-23T09:36:09.553Z,3.47
2023-05-23T09:38:56.083Z,3.37
2023-05-23T09:41:25.321Z,3.13
2023-05-23T09:43:54.470Z,3.23
2023-05-23T09:46:22.967Z,2.90
2023-05-23T09:48:54.126Z,3.50
2023-05-23T09:51:23.540Z,3.37
2023-05-23T09:53:51.401Z,2.97
2023-05-23T09:56:24.018Z,3.17
2023-05-23T09:58:51.964Z,2.70
2023-05-23T10:01:20.263Z,3.00
2023-05-23T10:03:57.230Z,3.07
2023-05-23T10:06:32.452Z,2.90
2023-05-23T10:09:06.791Z,2.90
2023-05-23T10:12:00.227Z,5.00
2023-05-23T10:14:30.302Z,3.40
2023-05-23T10:17:10.691Z,3.85
2023-05-23T10:19:47.168Z,3.70
2023-05-23T10:22:18.158Z,3.85
2023-05-23T10:24:47.079Z,4.30
2023-05-23T10:27:15.278Z,4.05
2023-05-23T10:29:55.224Z,3.85
2023-05-23T10:32:27.430Z,4.22
2023-05-23T10:35:13.973Z,4.85
2023-05-23T10:38:05.397Z,5.00
2023-05-23T10:40:53.518Z,5.03
2023-05-23T10:43:32.057Z,5.45
2023-05-23T10:46:00.074Z,6.38
2023-05-23T10:48:29.819Z,6.35
2023-05-23T10:51:09.183Z,7.32
2023-05-23T10:53:39.375Z,7.47
2023-05-23T10:56:12.671Z,7.88
2023-05-23T10:58:40.548Z,8.73
2023-05-23T11:01:10.421Z,8.43
2023-05-23T11:04:05.574Z,9.07
2023-05-23T11:06:41.430Z,8.60
2023-05-23T11:09:15.020Z,8.27
2023-05-23T11:11:49.536Z,8.57
2023-05-23T11:14:17.563Z,9.30
2023-05-23T11:16:49.343Z,9.38
2023-05-23T11:19:20.698Z,9.65
2023-05-23T11:22:06.505Z,9.23
2023-05-23T11:24:54.588Z,7.82
2023-05-23T11:27:37.140Z,9.07
2023-05-23T11:30:14.872Z,8.90
2023-05-23T11:32:51.146Z,9.82
2023-05-23T11:35:20.296Z,10.40
2023-05-23T11:37:48.369Z,11.07
2023-05-23T11:40:39.915Z,11.50
2023-05-23T11:43:16.979Z,11.25
2023-05-23T11:45:47.236Z,11.95
2023-05-23T11:48:17.164Z,13.05
2023-05-23T11:50:52.753Z,12.38
2023-05-23T11:53:23.255Z,12.48
2023-05-23T11:55:54.803Z,11.68
2023-05-23T11:58:26.929Z,12.88
2023-05-23T12:01:21.625Z,11.82
2023-05-23T12:03:54.346Z,11.57
2023-05-23T12:06:26.968Z,13.07
2023-05-23T12:08:57.214Z,11.85
2023-05-23T12:11:26.548Z,13.55
2023-05-23T12:13:55.107Z,12.38
2023-05-23T12:16:23.425Z,12.35
2023-05-23T12:18:53.522Z,12.98
2023-05-23T12:21:21.548Z,12.95
2023-05-23T12:23:49.850Z,13.07
2023-05-23T12:26:23.450Z,13.68
2023-05-23T12:28:51.993Z,13.68
2023-05-23T12:31:22.456Z,12.18
2023-05-23T12:33:53.556Z,12.15
2023-05-23T12:36:24.846Z,12.38
2023-05-23T12:38:53.030Z,11.48
2023-05-23T12:41:22.476Z,12.43
2023-05-23T12:43:53.426Z,13.40
2023-05-23T12:46:22.654Z,13.55
2023-05-23T12:48:51.342Z,14.32
2023-05-23T12:51:19.929Z,11.25
2023-05-23T12:53:48.586Z,10.95
2023-05-23T12:56:16.607Z,11.98
2023-05-23T12:58:46.572Z,12.60
2023-05-23T13:01:15.001Z,12.13
2023-05-23T13:03:43.308Z,10.68
2023-05-23T13:06:11.174Z,10.82
2023-05-23T13:08:39.110Z,10.07
2023-05-23T13:11:07.060Z,9.68
2023-05-23T13:13:35.232Z,10.63
2023-05-23T13:16:03.224Z,12.07
2023-05-23T13:18:32.703Z,11.65
2023-05-23T13:21:00.611Z,12.48
2023-05-23T13:23:30.719Z,13.32
2023-05-23T13:25:59.408Z,11.75
2023-05-23T13:28:27.793Z,14.02
2023-05-23T13:30:55.560Z,12.57
2023-05-23T13:33:24.983Z,13.50
2023-05-23T13:35:53.394Z,14.18
2023-05-23T13:38:21.654Z,15.05
2023-05-23T13:40:52.210Z,14.40
2023-05-23T13:43:21.118Z,14.27
2023-05-23T13:45:54.766Z,15.18
2023-05-23T13:48:23.869Z,13.95
2023-05-23T13:50:51.901Z,13.90
2023-05-23T13:53:20.712Z,13.77
2023-05-23T13:55:48.794Z,13.75
2023-05-23T13:58:17.048Z,14.20
2023-05-23T14:00:45.169Z,14.02
2023-05-23T14:03:14.481Z,13.57
2023-05-23T14:05:43.003Z,12.30
2023-05-23T14:08:12.188Z,11.88
2023-05-23T14:10:41.701Z,12.15
2023-05-23T14:13:10.323Z,10.77
2023-05-23T14:15:38.773Z,11.60
2023-05-23T14:18:08.031Z,9.35
2023-05-23T14:20:36.537Z,9.48
2023-05-23T14:23:04.482Z,9.60
2023-05-23T14:25:35.702Z,9.73
2023-05-23T14:28:04.256Z,9.40
2023-05-23T14:30:34.386Z,9.70
2023-05-23T14:33:11.574Z,10.02
2023-05-23T14:35:42.512Z,9.68
2023-05-23T14:38:11.002Z,4.35
2023-05-23T14:40:39.182Z,2.42
2023-05-23T14:43:08.121Z,1.50
2023-05-23T14:45:36.502Z,1.13
2023-05-23T14:48:06.923Z,1.10
2023-05-23T14:50:35.423Z,0.90
2023-05-23T14:53:03.389Z,0.98
2023-05-23T14:55:34.402Z,1.45
2023-05-23T14:58:03.985Z,0.75
2023-05-23T15:00:32.715Z,1.02
2023-05-23T15:03:01.544Z,1.13
2023-05-23T15:05:30.262Z,2.03
2023-05-23T15:07:58.249Z,1.92
2023-05-23T15:10:26.707Z,3.42
2023-05-23T15:12:54.529Z,1.20
2023-05-23T15:15:23.870Z,1.90
2023-05-23T15:17:51.970Z,1.30
2023-05-23T15:20:20.029Z,1.13
2023-05-23T15:22:50.536Z,1.67
2023-05-23T15:25:29.754Z,1.55
2023-05-23T15:28:06.897Z,1.70
2023-05-23T15:30:38.370Z,2.15
2023-05-23T15:33:07.826Z,1.80
2023-05-23T15:35:36.714Z,1.67
2023-05-23T15:38:08.480Z,1.73
2023-05-23T15:40:37.055Z,3.08
2023-05-23T15:43:06.965Z,1.60
2023-05-23T15:45:35.173Z,1.77
2023-05-23T15:48:03.165Z,2.17
2023-05-23T15:50:32.090Z,1.43
2023-05-23T15:53:00.024Z,2.17
2023-05-23T15:55:28.055Z,1.90
2023-05-23T15:57:59.238Z,2.00
2023-05-23T16:00:27.228Z,1.93
2023-05-23T16:02:55.348Z,1.70
2023-05-23T16:05:24.099Z,1.80
2023-05-23T16:07:52.417Z,2.03
2023-05-23T16:10:20.465Z,2.30
2023-05-23T16:12:48.989Z,2.20
2023-05-23T16:15:17.883Z,1.93
2023-05-23T16:17:49.140Z,2.10
2023-05-23T16:20:20.714Z,1.47
2023-05-23T16:22:48.664Z,1.80
2023-05-23T16:25:16.541Z,2.90
2023-05-23T16:27:44.578Z,5.87
2023-05-23T16:30:12.638Z,3.07
2023-05-23T16:32:42.366Z,3.73
2023-05-23T16:35:11.636Z,1.97
2023-05-23T16:37:40.170Z,1.90
2023-05-23T16:40:09.203Z,2.03
2023-05-23T16:42:37.523Z,1.70
2023-05-23T16:45:06.483Z,1.73
2023-05-23T16:47:34.949Z,1.80
2023-05-23T16:50:07.621Z,1.73
2023-05-23T16:52:36.493Z,2.07
2023-05-23T16:55:05.056Z,2.10
2023-05-23T16:57:33.321Z,2.37
2023-05-23T17:00:01.330Z,2.50
2023-05-23T17:02:29.651Z,2.47
2023-05-23T17:04:57.812Z,2.73
2023-05-23T17:07:26.771Z,2.97
2023-05-23T17:09:55.171Z,3.10
2023-05-23T17:12:23.109Z,2.93
2023-05-23T17:14:52.017Z,10.77
2023-05-23T17:17:20.111Z,11.73
2023-05-23T17:19:48.726Z,14.67
2023-05-23T17:22:16.850Z,27.23
2023-05-23T17:24:44.814Z,6.20
2023-05-23T17:27:15.668Z,3.50
2023-05-23T17:29:44.005Z,3.60
2023-05-23T17:32:12.312Z,3.53
2023-05-23T17:34:40.443Z,3.90
2023-05-23T17:37:08.702Z,3.97
2023-05-23T17:39:37.121Z,4.63
2023-05-23T17:42:04.960Z,4.63
2023-05-23T17:44:33.020Z,4.30
2023-05-23T17:47:01.004Z,4.17
2023-05-23T17:49:29.455Z,4.80
2023-05-23T17:51:58.022Z,4.70
2023-05-23T17:54:26.496Z,5.40
2023-05-23T17:56:54.898Z,5.53
2023-05-23T17:59:24.396Z,5.77
2023-05-23T18:01:52.458Z,7.70
2023-05-23T18:04:20.537Z,16.83
2023-05-23T18:06:48.425Z,30.77
2023-05-23T18:09:16.962Z,10.73
2023-05-23T18:11:45.483Z,6.77
2023-05-23T18:14:13.632Z,7.67
2023-05-23T18:16:41.998Z,6.47
2023-05-23T18:19:10.509Z,9.47
2023-05-23T18:21:38.450Z,12.93
2023-05-23T18:24:06.810Z,27.93
2023-05-23T18:26:34.922Z,8.43
2023-05-23T18:29:04.876Z,10.70
2023-05-23T18:31:32.770Z,7.07
2023-05-23T18:34:01.121Z,7.73
2023-05-23T18:36:29.358Z,8.00
2023-05-23T18:38:56.922Z,7.03
2023-05-23T18:41:28.046Z,8.00
2023-05-23T18:43:56.816Z,7.50
2023-05-23T18:46:49.391Z,8.90
2023-05-23T18:49:17.915Z,8.27
2023-05-23T18:51:48.569Z,9.10
2023-05-23T18:54:16.970Z,8.93
2023-05-23T18:56:44.840Z,9.43
2023-05-23T18:59:14.834Z,10.00
2023-05-23T19:01:44.761Z,10.00
2023-05-23T19:04:13.765Z,10.07
2023-05-23T19:06:41.986Z,10.60
2023-05-23T19:09:11.824Z,10.67
2023-05-23T19:11:41.077Z,10.60
2023-05-23T19:14:09.101Z,16.93
2023-05-23T19:16:37.951Z,12.67
2023-05-23T19:19:06.357Z,12.80
2023-05-23T19:21:35.043Z,13.70
2023-05-23T19:24:07.602Z,12.47
2023-05-23T19:26:35.864Z,13.53
2023-05-23T19:29:03.874Z,12.20
2023-05-23T19:31:32.237Z,12.43
2023-05-23T19:34:00.243Z,13.30
2023-05-23T19:36:28.087Z,13.00
2023-05-23T19:38:56.420Z,12.43
2023-05-23T19:41:24.620Z,12.30
2023-05-23T19:43:53.135Z,15.83
2023-05-23T19:46:21.815Z,13.03
2023-05-23T19:48:49.950Z,14.37
2023-05-23T19:51:17.782Z,13.40
2023-05-23T19:53:45.820Z,15.60
2023-05-23T19:56:15.327Z,13.20
2023-05-23T19:58:44.366Z,13.80
2023-05-23T20:01:15.491Z,14.63
2023-05-23T20:03:43.909Z,14.47
2023-05-23T20:06:13.175Z,14.47
2023-05-23T20:08:41.511Z,20.60
2023-05-23T20:11:10.557Z,16.53
2023-05-23T20:13:42.210Z,15.33
2023-05-23T20:16:10.728Z,15.80
2023-05-23T20:18:38.798Z,16.03
2023-05-23T20:21:07.872Z,17.00
2023-05-23T20:23:36.161Z,16.33
2023-05-23T20:26:05.635Z,16.30
2023-05-23T20:28:35.396Z,16.90
2023-05-23T20:31:03.782Z,16.43
2023-05-23T20:33:32.193Z,16.00
2023-05-23T20:36:00.615Z,16.20
2023-05-23T20:38:32.565Z,17.00
2023-05-23T20:41:06.948Z,14.40
2023-05-23T20:43:37.686Z,17.00
2023-05-23T20:46:06.216Z,14.87
2023-05-23T20:48:34.452Z,17.03
2023-05-23T20:51:02.980Z,14.67
2023-05-23T20:53:31.801Z,17.13
2023-05-23T20:56:00.671Z,20.43
2023-05-23T20:58:28.298Z,17.20
2023-05-23T21:00:56.943Z,18.00
2023-05-23T21:03:25.677Z,17.83
2023-05-23T21:05:53.492Z,17.17
2023-05-23T21:08:22.771Z,17.30
2023-05-23T21:10:54.182Z,14.67
2023-05-23T21:13:23.608Z,16.87
2023-05-23T21:15:51.784Z,18.17
2023-05-23T21:18:19.501Z,13.97
2023-05-23T21:20:47.413Z,19.67
2023-05-23T21:23:15.287Z,18.07
2023-05-23T21:25:43.138Z,21.40
2023-05-23T21:28:11.170Z,17.17
2023-05-23T21:30:39.616Z,18.23
2023-05-23T21:33:08.192Z,16.03
2023-05-23T21:35:38.155Z,26.40
2023-05-23T21:38:06.634Z,27.63
2023-05-23T21:40:34.867Z,17.60
2023-05-23T21:43:02.862Z,16.77
2023-05-23T21:45:31.306Z,18.40
2023-05-23T21:47:59.166Z,36.73
2023-05-23T21:50:27.169Z,24.53
2023-05-23T21:52:55.323Z,25.50
2023-05-23T21:55:23.470Z,22.90
2023-05-23T21:57:51.387Z,21.67
2023-05-23T22:00:20.203Z,17.00
2023-05-23T22:02:48.818Z,19.83
2023-05-23T22:05:17.586Z,19.10
2023-05-23T22:07:46.211Z,22.83
2023-05-23T22:10:13.857Z,19.47
2023-05-23T22:12:44.132Z,17.27
2023-05-23T22:15:12.694Z,18.63
2023-05-23T22:17:44.249Z,19.40
2023-05-23T22:20:14.847Z,21.00
2023-05-23T22:22:43.433Z,20.47
2023-05-23T22:25:11.663Z,21.50
2023-05-23T22:27:40.395Z,20.50
2023-05-23T22:30:09.069Z,21.03
2023-05-23T22:32:37.259Z,19.30
2023-05-23T22:35:05.811Z,19.37
2023-05-23T22:37:33.624Z,21.30
2023-05-23T22:40:01.395Z,20.80
2023-05-23T22:42:29.375Z,21.13
2023-05-23T22:44:57.513Z,22.40
2023-05-23T22:47:25.387Z,23.00
2023-05-23T22:49:56.753Z,22.27
2023-05-23T22:52:25.776Z,21.67
2023-05-23T22:54:54.021Z,22.13
2023-05-23T22:57:21.982Z,20.97
2023-05-23T22:59:49.994Z,22.67
2023-05-23T23:02:17.980Z,24.03
2023-05-23T23:04:48.595Z,22.80
2023-05-23T23:07:17.194Z,23.13
2023-05-23T23:09:45.224Z,23.47
2023-05-23T23:12:12.939Z,22.13
2023-05-23T23:14:41.644Z,22.63
2023-05-23T23:17:10.283Z,22.23
2023-05-23T23:19:39.654Z,22.70
2023-05-23T23:22:08.372Z,22.70
2023-05-23T23:24:36.341Z,22.73
2023-05-23T23:27:04.387Z,21.67
2023-05-23T23:29:32.958Z,23.30
2023-05-23T23:32:01.320Z,20.33
2023-05-23T23:34:29.768Z,20.00
2023-05-23T23:37:00.329Z,28.50
2023-05-23T23:39:28.306Z,27.60
2023-05-23T23:41:56.541Z,20.47
2023-05-23T23:44:24.529Z,20.60
2023-05-23T23:46:52.781Z,20.43
2023-05-23T23:49:22.724Z,20.50
2023-05-23T23:51:50.816Z,20.27
2023-05-23T23:54:19.951Z,21.50
2023-05-23T23:56:48.328Z,20.20
2023-05-23T23:59:16.152Z,20.97
